KHIB

Range Regional Airport

Hibbing, Minnesota, USA
KHIB 230538Z 2306/2406 31007KT P6SM VCSH OVC035 FM232300 21005KT P6SM VCSH OVC045 FM240000 21006KT P6SM OVC025 FM240200 25008KT 2SM -SHSN OVC020 FM240400 27011KT P6SM OVC010
Issued Valid From Valid To
Jan-23 @ 05:38 UTC
(2 hours ago)
Jan-23 @ 06:00 UTC
(an hour ago)
Jan-24 @ 06:00 UTC
(in 23 hours)
Jan-23 @ 06:00 to Jan-23 @ 23:00
KHIB 230538Z 2306/2406 31007KT P6SM VCSH OVC035
Wind Visibility Clouds
310° at 7 knots Greater than 6 miles
  • Overcast at 3,500' AGL
From Jan-23 @ 23:00 to Jan-24 @ 00:00
FM232300 21005KT P6SM VCSH OVC045
Wind Visibility Clouds
210° at 5 knots Greater than 6 miles
  • Overcast at 4,500' AGL
From Jan-24 @ 00:00 to Jan-24 @ 02:00
FM240000 21006KT P6SM OVC025
Wind Visibility Clouds
210° at 6 knots Greater than 6 miles
  • Overcast at 2,500' AGL
From Jan-24 @ 02:00 to Jan-24 @ 04:00
FM240200 25008KT 2SM -SHSN OVC020
Wind Visibility Clouds Conditions
250° at 8 knots 2 miles
  • Overcast at 2,000' AGL
  • Light Snow
From Jan-24 @ 04:00 to Jan-24 @ 06:00
FM240400 27011KT P6SM OVC010
Wind Visibility Clouds
270° at 11 knots Greater than 6 miles
  • Overcast at 1,000' AGL
KHIB 230538Z 2306/2406 31007KT P6SM VCSH OVC035 FM232300 21005KT P6SM VCSH OVC045 FM240000 21006KT P6SM OVC025 FM240200 25008KT 2SM -SHSN OVC020 FM240400 27011KT P6SM OVC010
Issued Jan-23 @ 05:38 UTC
(2 hours ago)
Valid From Jan-23 @ 06:00 UTC
(an hour ago)
Valid To Jan-24 @ 06:00 UTC
(in 23 hours)
Jan-23 @ 06:00 - Jan-23 @ 23:00
Wind Visibility
310° at 7 knots Greater than 6 miles
Clouds
  • Overcast at 3,500' AGL
From Jan-23 @ 23:00 - Jan-24 @ 00:00
Wind Visibility
210° at 5 knots Greater than 6 miles
Clouds
  • Overcast at 4,500' AGL
From Jan-24 @ 00:00 - Jan-24 @ 02:00
Wind Visibility
210° at 6 knots Greater than 6 miles
Clouds
  • Overcast at 2,500' AGL
From Jan-24 @ 02:00 - Jan-24 @ 04:00
Wind Visibility
250° at 8 knots 2 miles
Clouds
  • Overcast at 2,000' AGL
Conditions
  • Light Snow
From Jan-24 @ 04:00 - Jan-24 @ 06:00
Wind Visibility
270° at 11 knots Greater than 6 miles
Clouds
  • Overcast at 1,000' AGL